createdAt,value
2019-05-29T00:02:24.400Z,101174.48
2019-05-29T00:04:57.079Z,101173.71
2019-05-29T00:07:30.070Z,101177.95
2019-05-29T00:10:02.895Z,101177.17
2019-05-29T00:12:35.933Z,101179.73
2019-05-29T00:15:08.766Z,101175.69
2019-05-29T00:17:42.214Z,101180.94
2019-05-29T00:20:14.895Z,101183.72
2019-05-29T00:22:47.782Z,101181.08
2019-05-29T00:25:20.156Z,101178.45
2019-05-29T00:27:52.739Z,101180.66
2019-05-29T00:30:25.619Z,101184.75
2019-05-29T00:32:58.274Z,101186.68
2019-05-29T00:35:30.971Z,101183.16
2019-05-29T00:38:03.780Z,101178.55
2019-05-29T00:40:36.774Z,101176.19
2019-05-29T00:43:11.188Z,101177.30
2019-05-29T00:45:43.839Z,101168.94
2019-05-29T00:48:16.296Z,101171.97
2019-05-29T00:50:49.414Z,101172.82
2019-05-29T00:53:21.951Z,101166.58
2019-05-29T00:55:54.742Z,101159.19
2019-05-29T00:58:27.545Z,101155.16
2019-05-29T01:01:00.208Z,101151.39
2019-05-29T01:03:33.093Z,101149.23
2019-05-29T01:06:05.693Z,101154.38
2019-05-29T01:08:38.611Z,101159.03
2019-05-29T01:11:11.335Z,101156.54
2019-05-29T01:13:45.140Z,101152.76
2019-05-29T01:16:17.944Z,101162.34
2019-05-29T01:18:51.653Z,101163.78
2019-05-29T01:21:25.027Z,101163.89
2019-05-29T01:23:57.706Z,101160.47
2019-05-29T01:26:30.589Z,101159.20
2019-05-29T01:29:03.493Z,101150.94
2019-05-29T01:31:36.169Z,101150.73
2019-05-29T01:34:09.036Z,101158.63
2019-05-29T01:36:41.535Z,101159.20
2019-05-29T01:39:15.136Z,101158.90
2019-05-29T01:41:47.607Z,101160.00
2019-05-29T01:44:21.454Z,101155.98
2019-05-29T01:46:54.097Z,101158.94
2019-05-29T01:49:28.035Z,101159.77
2019-05-29T01:52:00.779Z,101160.26
2019-05-29T01:54:33.549Z,101168.43
2019-05-29T01:57:06.338Z,101171.55
2019-05-29T01:59:38.913Z,101178.88
2019-05-29T02:02:11.791Z,101180.62
2019-05-29T02:04:44.247Z,101173.06
2019-05-29T02:07:18.020Z,101187.17
2019-05-29T02:09:50.632Z,101187.69
2019-05-29T02:12:24.432Z,101196.09
2019-05-29T02:14:56.828Z,101193.63
2019-05-29T02:17:29.828Z,101201.27
2019-05-29T02:20:02.558Z,101200.39
2019-05-29T02:22:35.299Z,101199.08
2019-05-29T02:25:09.469Z,101208.20
2019-05-29T02:27:41.591Z,101203.44
2019-05-29T02:30:14.054Z,101199.70
2019-05-29T02:32:46.503Z,101189.16
2019-05-29T02:35:20.270Z,101186.13
2019-05-29T02:37:53.331Z,101180.56
2019-05-29T02:40:27.937Z,101186.82
2019-05-29T02:42:59.307Z,101189.78
2019-05-29T02:45:52.868Z,101189.26
2019-05-29T02:48:06.084Z,101190.39
2019-05-29T02:50:38.899Z,101192.58
2019-05-29T02:53:11.541Z,101188.91
2019-05-29T02:55:44.203Z,101189.64
2019-05-29T02:58:17.002Z,101194.70
2019-05-29T03:00:52.841Z,101197.84
2019-05-29T03:03:26.537Z,101198.48
2019-05-29T03:05:59.629Z,101201.77
2019-05-29T03:08:34.152Z,101202.49
2019-05-29T03:11:06.444Z,101199.09
2019-05-29T03:13:39.274Z,101197.27
2019-05-29T03:16:13.168Z,101197.67
2019-05-29T03:18:46.110Z,101199.16
2019-05-29T03:21:19.226Z,101191.11
2019-05-29T03:23:51.883Z,101203.13
2019-05-29T03:26:26.920Z,101201.02
2019-05-29T03:28:57.984Z,101198.34
2019-05-29T03:31:37.661Z,101197.59
2019-05-29T03:34:04.554Z,101197.69
2019-05-29T03:36:43.566Z,101197.09
2019-05-29T03:39:11.439Z,101194.11
2019-05-29T03:41:43.927Z,101185.55
2019-05-29T03:44:16.710Z,101184.14
2019-05-29T03:46:49.384Z,101183.77
2019-05-29T03:49:22.535Z,101188.64
2019-05-29T03:51:54.800Z,101170.49
2019-05-29T03:54:28.765Z,101175.49
2019-05-29T03:57:02.354Z,101178.69
2019-05-29T03:59:36.904Z,101182.63
2019-05-29T04:02:09.265Z,101189.55
2019-05-29T04:04:41.929Z,101191.62
2019-05-29T04:07:15.329Z,101190.41
2019-05-29T04:09:47.800Z,101186.69
2019-05-29T04:12:20.642Z,101182.96
2019-05-29T04:14:54.898Z,101180.56
2019-05-29T04:17:29.765Z,101186.20
2019-05-29T04:20:02.904Z,101188.27
2019-05-29T04:22:38.419Z,101193.03
2019-05-29T04:25:10.944Z,101197.91
2019-05-29T04:27:44.136Z,101193.56
2019-05-29T04:30:16.813Z,101193.11
2019-05-29T04:32:49.578Z,101198.98
2019-05-29T04:35:22.180Z,101207.88
2019-05-29T04:37:54.958Z,101211.95
2019-05-29T04:40:28.603Z,101217.06
2019-05-29T04:43:01.355Z,101220.52
2019-05-29T04:45:39.133Z,101223.22
2019-05-29T04:48:15.854Z,101217.55
2019-05-29T04:50:48.874Z,101209.70
2019-05-29T04:53:21.375Z,101217.27
2019-05-29T04:55:54.259Z,101206.67
2019-05-29T04:58:26.935Z,101208.77
2019-05-29T05:00:59.794Z,101220.61
2019-05-29T05:03:33.221Z,101222.47
2019-05-29T05:06:06.805Z,101225.92
2019-05-29T05:08:39.875Z,101223.06
2019-05-29T05:11:12.896Z,101224.12
2019-05-29T05:13:46.495Z,101219.75
2019-05-29T05:16:19.389Z,101219.75
2019-05-29T05:18:51.960Z,101225.16
2019-05-29T05:21:24.841Z,101221.25
2019-05-29T05:23:57.527Z,101231.58
2019-05-29T05:26:30.304Z,101229.75
2019-05-29T05:29:05.324Z,101232.95
2019-05-29T05:31:38.573Z,101234.33
2019-05-29T05:34:11.359Z,101232.70
2019-05-29T05:36:43.873Z,101234.95
2019-05-29T05:39:16.660Z,101235.86
2019-05-29T05:41:49.474Z,101240.86
2019-05-29T05:44:22.032Z,101237.60
2019-05-29T05:46:54.726Z,101237.34
2019-05-29T05:49:27.174Z,101232.30
2019-05-29T05:52:00.902Z,101231.77
2019-05-29T05:54:33.755Z,101230.91
2019-05-29T05:57:06.342Z,101227.98
2019-05-29T05:59:39.982Z,101222.75
2019-05-29T06:02:13.814Z,101235.63
2019-05-29T06:04:47.869Z,101239.45
2019-05-29T06:07:21.218Z,101239.39
2019-05-29T06:09:53.961Z,101243.73
2019-05-29T06:12:27.950Z,101244.69
2019-05-29T06:15:00.042Z,101253.72
2019-05-29T06:17:32.388Z,101259.12
2019-05-29T06:20:07.827Z,101260.30
2019-05-29T06:22:41.164Z,101258.95
2019-05-29T06:25:14.170Z,101264.70
2019-05-29T06:27:46.787Z,101269.45
2019-05-29T06:30:19.898Z,101276.63
2019-05-29T06:32:53.091Z,101272.48
2019-05-29T06:35:25.666Z,101277.20
2019-05-29T06:37:58.636Z,101280.41
2019-05-29T06:40:40.221Z,101268.84
2019-05-29T06:43:23.876Z,101269.62
2019-05-29T06:45:57.590Z,101265.83
2019-05-29T06:48:42.923Z,101263.56
2019-05-29T06:51:05.946Z,101268.44
2019-05-29T06:53:37.892Z,101265.67
2019-05-29T06:56:10.274Z,101266.34
2019-05-29T06:58:44.336Z,101265.83
2019-05-29T07:01:16.921Z,101269.50
2019-05-29T07:03:49.612Z,101265.47
2019-05-29T07:06:22.478Z,101254.96
2019-05-29T07:08:55.365Z,101256.30
2019-05-29T07:11:28.274Z,101258.08
2019-05-29T07:14:00.741Z,101257.33
2019-05-29T07:16:43.590Z,101262.97
2019-05-29T07:19:25.318Z,101261.31
2019-05-29T07:21:42.962Z,101257.04
2019-05-29T07:24:16.898Z,101255.97
2019-05-29T07:26:49.270Z,101247.13
2019-05-29T07:29:22.036Z,101241.05
2019-05-29T07:31:55.236Z,101231.45
2019-05-29T07:34:28.114Z,101227.66
2019-05-29T07:37:00.805Z,101225.60
2019-05-29T07:39:33.457Z,101231.63
2019-05-29T07:42:06.034Z,101223.95
2019-05-29T07:44:39.908Z,101216.85
2019-05-29T07:47:12.644Z,101215.73
2019-05-29T07:49:47.165Z,101225.84
2019-05-29T07:52:19.739Z,101223.91
2019-05-29T07:54:52.481Z,101219.20
2019-05-29T07:57:24.985Z,101216.48
2019-05-29T07:59:57.676Z,101225.64
2019-05-29T08:02:30.262Z,101220.72
2019-05-29T08:05:03.021Z,101212.40
2019-05-29T08:07:35.598Z,101218.16
2019-05-29T08:10:08.682Z,101209.84
2019-05-29T08:12:46.383Z,101220.77
2019-05-29T08:15:15.395Z,101216.05
2019-05-29T08:17:48.275Z,101213.13
2019-05-29T08:20:20.953Z,101204.70
2019-05-29T08:22:53.741Z,101212.30
2019-05-29T08:25:26.569Z,101207.03
2019-05-29T08:27:59.509Z,101210.84
2019-05-29T08:30:32.393Z,101208.16
2019-05-29T08:33:05.265Z,101207.42
2019-05-29T08:35:37.631Z,101205.09
2019-05-29T08:38:10.413Z,101205.95
2019-05-29T08:40:43.079Z,101212.76
2019-05-29T08:43:15.690Z,101208.42
2019-05-29T08:45:49.604Z,101210.84
2019-05-29T08:48:22.055Z,101205.94
2019-05-29T08:50:55.453Z,101201.38
2019-05-29T08:53:28.151Z,101208.32
2019-05-29T08:56:00.712Z,101200.03
2019-05-29T08:58:37.002Z,101198.86
2019-05-29T09:01:07.628Z,101196.53
2019-05-29T09:03:40.290Z,101193.18
2019-05-29T09:06:13.828Z,101194.00
2019-05-29T09:08:48.086Z,101189.07
2019-05-29T09:11:20.675Z,101188.11
2019-05-29T09:13:53.181Z,101194.08
2019-05-29T09:16:25.958Z,101188.55
2019-05-29T09:18:58.612Z,101184.01
2019-05-29T09:21:31.419Z,101187.20
2019-05-29T09:24:04.196Z,101177.68
2019-05-29T09:26:37.083Z,101183.66
2019-05-29T09:29:09.738Z,101168.97
2019-05-29T09:31:42.423Z,101180.47
2019-05-29T09:34:16.600Z,101179.90
2019-05-29T09:36:49.405Z,101173.94
2019-05-29T09:39:22.804Z,101173.17
2019-05-29T09:41:55.297Z,101163.67
2019-05-29T09:44:38.002Z,101152.97
2019-05-29T09:47:02.101Z,101162.91
2019-05-29T09:49:34.611Z,101155.36
2019-05-29T09:52:07.359Z,101140.28
2019-05-29T09:54:40.164Z,101149.01
2019-05-29T09:57:15.317Z,101153.39
2019-05-29T09:59:46.937Z,101153.19
2019-05-29T10:02:19.822Z,101159.55
2019-05-29T10:04:53.131Z,101161.94
2019-05-29T10:07:26.500Z,101151.81
2019-05-29T10:10:00.600Z,101150.41
2019-05-29T10:12:33.404Z,101149.81
2019-05-29T10:15:08.342Z,101148.03
2019-05-29T10:17:40.910Z,101146.84
2019-05-29T10:20:15.426Z,101150.19
2019-05-29T10:22:47.629Z,101146.59
2019-05-29T10:25:20.285Z,101134.69
2019-05-29T10:27:52.976Z,101129.67
2019-05-29T10:30:26.037Z,101126.10
2019-05-29T10:32:58.628Z,101124.70
2019-05-29T10:35:31.295Z,101115.98
2019-05-29T10:38:03.874Z,101112.59
2019-05-29T10:40:36.873Z,101110.59
2019-05-29T10:43:09.549Z,101102.61
2019-05-29T10:45:43.457Z,101095.85
2019-05-29T10:48:16.343Z,101094.63
2019-05-29T10:50:50.967Z,101093.23
2019-05-29T10:53:23.145Z,101089.23
2019-05-29T10:55:55.820Z,101084.27
2019-05-29T10:58:28.405Z,101072.92
2019-05-29T11:01:00.873Z,101073.73
2019-05-29T11:03:33.530Z,101070.53
2019-05-29T11:06:06.108Z,101063.17
2019-05-29T11:08:38.891Z,101049.64
2019-05-29T11:11:11.385Z,101043.87
2019-05-29T11:13:43.940Z,101039.64
2019-05-29T11:16:16.846Z,101042.43
2019-05-29T11:18:49.516Z,101029.33
2019-05-29T11:21:22.102Z,101039.39
2019-05-29T11:23:55.917Z,101037.93
2019-05-29T11:26:28.471Z,101027.77
2019-05-29T11:29:01.262Z,101028.95
2019-05-29T11:31:33.932Z,101034.93
2019-05-29T11:34:06.535Z,101024.86
2019-05-29T11:36:39.314Z,101030.97
2019-05-29T11:39:12.403Z,101026.95
2019-05-29T11:41:46.181Z,101035.87
2019-05-29T11:44:17.767Z,101028.22
2019-05-29T11:46:50.200Z,101015.64
2019-05-29T11:49:23.118Z,101012.14
2019-05-29T11:52:18.620Z,101018.88
2019-05-29T11:54:29.911Z,101013.39
2019-05-29T11:57:03.284Z,101005.21
2019-05-29T11:59:35.983Z,100995.78
2019-05-29T12:02:09.081Z,100988.50
2019-05-29T12:04:41.657Z,100986.17
2019-05-29T12:07:14.135Z,100979.94
2019-05-29T12:09:47.066Z,100984.12
2019-05-29T12:12:19.714Z,100982.89
2019-05-29T12:15:06.171Z,100984.09
2019-05-29T12:17:27.272Z,100986.66
2019-05-29T12:20:02.383Z,100992.13
2019-05-29T12:22:34.175Z,100983.84
2019-05-29T12:25:07.252Z,100987.63
2019-05-29T12:27:39.650Z,100987.38
2019-05-29T12:30:13.361Z,100987.72
2019-05-29T12:32:46.573Z,100975.53
2019-05-29T12:35:19.701Z,100967.50
2019-05-29T12:37:53.137Z,100970.09
2019-05-29T12:40:25.994Z,100961.00
2019-05-29T12:43:00.078Z,100953.47
2019-05-29T12:45:33.095Z,100949.97
2019-05-29T12:48:12.333Z,100934.53
2019-05-29T12:50:40.314Z,100932.33
2019-05-29T12:53:29.022Z,100939.97
2019-05-29T12:55:47.131Z,100944.82
2019-05-29T12:58:19.582Z,100945.84
2019-05-29T13:00:52.283Z,100945.17
2019-05-29T13:03:25.066Z,100931.64
2019-05-29T13:05:58.201Z,100926.31
2019-05-29T13:08:30.963Z,100931.41
2019-05-29T13:11:05.078Z,100935.25
2019-05-29T13:13:37.722Z,100946.38
2019-05-29T13:16:10.286Z,100954.84
2019-05-29T13:18:42.966Z,100969.91
2019-05-29T13:21:15.599Z,100981.91
2019-05-29T13:23:48.341Z,100975.05
2019-05-29T13:26:21.121Z,100977.64
2019-05-29T13:28:53.801Z,100982.80
2019-05-29T13:31:26.359Z,100983.95
2019-05-29T13:33:59.961Z,100978.91
2019-05-29T13:36:31.862Z,100980.02
2019-05-29T13:39:06.464Z,100988.45
2019-05-29T13:41:39.048Z,101000.03
2019-05-29T13:44:11.917Z,101004.03
2019-05-29T13:46:44.595Z,101011.66
2019-05-29T13:49:17.389Z,101019.47
2019-05-29T13:51:50.357Z,101018.06
2019-05-29T13:54:25.013Z,101021.51
2019-05-29T13:56:59.601Z,101030.47
2019-05-29T13:59:32.819Z,101031.30
2019-05-29T14:02:06.731Z,101023.57
2019-05-29T14:04:40.046Z,101018.64
2019-05-29T14:07:12.712Z,101016.50
2019-05-29T14:09:47.330Z,101018.84
2019-05-29T14:12:19.382Z,101017.20
2019-05-29T14:14:51.970Z,101019.37
2019-05-29T14:17:24.753Z,101021.33
2019-05-29T14:19:57.416Z,101023.41
2019-05-29T14:22:29.908Z,101019.66
2019-05-29T14:25:03.147Z,101024.20
2019-05-29T14:27:35.453Z,101014.55
2019-05-29T14:30:10.216Z,101015.08
2019-05-29T14:32:42.473Z,101008.59
2019-05-29T14:35:15.538Z,101011.78
2019-05-29T14:37:48.132Z,101011.41
2019-05-29T14:40:24.269Z,101002.39
2019-05-29T14:42:56.958Z,101005.70
2019-05-29T14:45:29.462Z,101007.41
2019-05-29T14:48:02.162Z,101009.92
2019-05-29T14:50:34.397Z,101008.52
2019-05-29T14:53:07.430Z,101014.06
2019-05-29T14:55:40.252Z,101017.73
2019-05-29T14:58:13.938Z,101017.91
2019-05-29T15:00:47.987Z,101022.14
2019-05-29T15:03:19.878Z,101015.31
2019-05-29T15:05:52.000Z,101019.03
2019-05-29T15:08:24.802Z,101015.05
2019-05-29T15:10:57.383Z,101032.92
2019-05-29T15:13:29.358Z,101027.16
2019-05-29T15:16:04.491Z,101032.98
2019-05-29T15:18:37.163Z,101034.28
2019-05-29T15:21:10.964Z,101039.11
2019-05-29T15:23:43.647Z,101035.90
2019-05-29T15:26:16.340Z,101041.73
2019-05-29T15:28:48.900Z,101040.69
2019-05-29T15:31:22.101Z,101036.20
2019-05-29T15:33:54.034Z,101038.84
2019-05-29T15:36:26.321Z,101037.02
2019-05-29T15:38:58.300Z,101030.85
2019-05-29T15:41:30.556Z,101022.38
2019-05-29T15:44:03.449Z,101027.02
2019-05-29T15:46:36.118Z,101026.41
2019-05-29T15:49:10.988Z,101029.00
2019-05-29T15:51:43.746Z,101028.70
2019-05-29T15:54:17.675Z,101026.43
2019-05-29T15:56:49.522Z,101033.29
2019-05-29T15:59:21.755Z,101030.86
2019-05-29T16:01:54.459Z,101031.79
2019-05-29T16:04:27.253Z,101036.50
2019-05-29T16:06:59.801Z,101035.09
2019-05-29T16:09:32.594Z,101029.20
2019-05-29T16:12:05.157Z,101036.52
2019-05-29T16:14:37.836Z,101043.08
2019-05-29T16:17:11.011Z,101035.86
2019-05-29T16:19:43.528Z,101035.86
2019-05-29T16:22:19.274Z,101045.89
2019-05-29T16:24:51.954Z,101041.08
2019-05-29T16:27:30.086Z,101036.34
2019-05-29T16:32:29.890Z,101033.42
2019-05-29T16:35:02.647Z,101034.75
2019-05-29T16:37:35.360Z,101033.14
2019-05-29T16:40:12.136Z,101029.94
2019-05-29T16:42:44.595Z,101025.48
2019-05-29T16:45:20.552Z,101030.78
2019-05-29T16:47:53.029Z,101032.88
2019-05-29T16:50:25.607Z,101034.80
2019-05-29T16:52:58.183Z,101037.66
2019-05-29T16:55:30.659Z,101039.18
2019-05-29T16:58:03.445Z,101032.16
2019-05-29T17:00:36.225Z,101041.40
2019-05-29T17:03:08.905Z,101038.88
2019-05-29T17:05:41.786Z,101038.91
2019-05-29T17:08:14.444Z,101039.13
2019-05-29T17:10:47.142Z,101031.41
2019-05-29T17:13:20.660Z,101037.92
2019-05-29T17:15:53.322Z,101037.69
2019-05-29T17:18:26.104Z,101044.78
2019-05-29T17:20:58.895Z,101042.41
2019-05-29T17:23:31.568Z,101042.82
2019-05-29T17:26:10.843Z,101041.02
2019-05-29T17:28:38.582Z,101046.29
2019-05-29T17:31:11.249Z,101046.08
2019-05-29T17:33:43.907Z,101044.66
2019-05-29T17:36:16.871Z,101047.23
2019-05-29T17:38:49.539Z,101043.13
2019-05-29T17:41:23.502Z,101044.54
2019-05-29T17:43:56.287Z,101046.50
2019-05-29T17:46:28.957Z,101050.16
2019-05-29T17:49:01.651Z,101057.13
2019-05-29T17:51:34.325Z,101056.63
2019-05-29T17:54:07.109Z,101065.78
2019-05-29T17:56:39.927Z,101064.47
2019-05-29T17:59:12.676Z,101066.16
2019-05-29T18:01:45.660Z,101077.91
2019-05-29T18:04:18.447Z,101074.63
2019-05-29T18:06:50.893Z,101072.19
2019-05-29T18:09:27.026Z,101077.84
2019-05-29T18:11:57.696Z,101078.58
2019-05-29T18:14:30.598Z,101082.85
2019-05-29T18:17:03.577Z,101086.53
2019-05-29T18:19:37.586Z,101083.92
2019-05-29T18:22:10.267Z,101083.04
2019-05-29T18:24:42.740Z,101085.88
2019-05-29T18:27:15.732Z,101094.98
2019-05-29T18:29:48.399Z,101096.91
2019-05-29T18:32:22.340Z,101095.95
2019-05-29T18:34:56.638Z,101092.81
2019-05-29T18:37:29.417Z,101094.95
2019-05-29T18:40:02.182Z,101099.84
2019-05-29T18:42:34.782Z,101104.95
2019-05-29T18:45:20.370Z,101101.23
2019-05-29T18:47:44.503Z,101105.75
2019-05-29T18:50:17.703Z,101111.67
2019-05-29T18:52:50.889Z,101112.38
2019-05-29T18:55:24.823Z,101107.05
2019-05-29T18:57:57.495Z,101104.67
2019-05-29T19:00:31.529Z,101106.77
2019-05-29T19:03:04.289Z,101105.56
2019-05-29T19:05:36.999Z,101109.86
2019-05-29T19:08:11.195Z,101108.05
2019-05-29T19:10:44.087Z,101108.05
2019-05-29T19:13:16.846Z,101103.61
2019-05-29T19:15:50.180Z,101102.71
2019-05-29T19:18:23.965Z,101098.27
2019-05-29T19:20:58.033Z,101089.89
2019-05-29T19:23:31.116Z,101089.20
2019-05-29T19:26:03.746Z,101091.03
2019-05-29T19:28:36.486Z,101093.00
2019-05-29T19:31:10.653Z,101094.41
2019-05-29T19:33:43.125Z,101093.96
2019-05-29T19:36:15.779Z,101095.91
2019-05-29T19:38:51.357Z,101090.64
2019-05-29T19:41:24.316Z,101093.63
2019-05-29T19:44:00.795Z,101085.28
2019-05-29T19:46:52.259Z,101084.92
2019-05-29T19:49:07.799Z,101087.47
2019-05-29T19:51:40.577Z,101084.01
2019-05-29T19:54:13.239Z,101084.36
2019-05-29T19:56:45.750Z,101082.20
2019-05-29T19:59:18.512Z,101081.26
2019-05-29T20:01:52.830Z,101082.63
2019-05-29T20:04:26.636Z,101081.61
2019-05-29T20:07:01.878Z,101080.23
2019-05-29T20:09:35.418Z,101083.22
2019-05-29T20:12:07.971Z,101083.33
2019-05-29T20:14:40.340Z,101083.45
2019-05-29T20:17:12.690Z,101083.35
2019-05-29T20:19:46.717Z,101076.01
2019-05-29T20:22:18.784Z,101081.61
2019-05-29T20:24:50.992Z,101087.81
2019-05-29T20:27:23.634Z,101083.59
2019-05-29T20:29:56.538Z,101085.63
2019-05-29T20:32:30.454Z,101090.91
2019-05-29T20:35:04.795Z,101092.75
2019-05-29T20:37:38.377Z,101081.94
2019-05-29T20:40:11.442Z,101082.63
2019-05-29T20:42:44.208Z,101076.42
2019-05-29T20:45:16.783Z,101077.80
2019-05-29T20:47:49.666Z,101079.76
2019-05-29T20:50:22.659Z,101079.31
2019-05-29T20:52:55.551Z,101079.52
2019-05-29T20:55:28.325Z,101074.27
2019-05-29T20:58:00.896Z,101077.36
2019-05-29T21:00:36.108Z,101080.89
2019-05-29T21:03:08.716Z,101079.31
2019-05-29T21:05:42.853Z,101071.73
2019-05-29T21:08:15.736Z,101069.57
2019-05-29T21:10:48.484Z,101074.14
2019-05-29T21:13:21.266Z,101075.28
2019-05-29T21:15:54.045Z,101078.38
2019-05-29T21:18:26.939Z,101077.34
2019-05-29T21:21:00.019Z,101079.50
2019-05-29T21:23:32.610Z,101079.84
2019-05-29T21:26:05.604Z,101083.97
2019-05-29T21:28:44.430Z,101081.46
2019-05-29T21:31:13.150Z,101078.61
2019-05-29T21:33:49.234Z,101071.98
2019-05-29T21:36:21.831Z,101070.02
2019-05-29T21:38:54.036Z,101069.33
2019-05-29T21:41:26.985Z,101073.81
2019-05-29T21:44:01.533Z,101071.08
2019-05-29T21:46:34.953Z,101076.77
2019-05-29T21:49:07.686Z,101086.97
2019-05-29T21:51:41.506Z,101096.69
2019-05-29T21:54:14.069Z,101104.36
2019-05-29T21:56:47.888Z,101103.77
2019-05-29T21:59:20.468Z,101112.36
2019-05-29T22:01:53.344Z,101116.00
2019-05-29T22:04:25.933Z,101109.03
2019-05-29T22:06:58.407Z,101115.63
2019-05-29T22:09:31.497Z,101113.45
2019-05-29T22:12:04.973Z,101112.05
2019-05-29T22:14:38.687Z,101116.06
2019-05-29T22:17:12.284Z,101108.48
2019-05-29T22:19:45.185Z,101108.58
2019-05-29T22:22:17.765Z,101109.61
2019-05-29T22:24:51.141Z,101109.26
2019-05-29T22:27:23.824Z,101108.33
2019-05-29T22:29:57.364Z,101112.20
2019-05-29T22:32:30.050Z,101111.63
2019-05-29T22:35:02.907Z,101113.91
2019-05-29T22:37:35.489Z,101114.59
2019-05-29T22:40:09.407Z,101121.31
2019-05-29T22:43:03.355Z,101114.31
2019-05-29T22:45:35.943Z,101124.25
2019-05-29T22:48:09.138Z,101114.78
2019-05-29T22:50:42.022Z,101120.81
2019-05-29T22:53:15.389Z,101122.19
2019-05-29T22:55:48.102Z,101115.39
2019-05-29T22:58:21.086Z,101126.70
2019-05-29T23:00:54.204Z,101127.63
2019-05-29T23:03:27.489Z,101126.30
2019-05-29T23:06:00.473Z,101124.33
2019-05-29T23:08:33.665Z,101125.80
2019-05-29T23:11:06.637Z,101123.97
2019-05-29T23:13:39.425Z,101131.71
2019-05-29T23:16:12.412Z,101130.47
2019-05-29T23:18:45.498Z,101128.16
2019-05-29T23:21:18.473Z,101128.58
2019-05-29T23:23:51.557Z,101129.98
2019-05-29T23:26:24.153Z,101120.82
2019-05-29T23:28:56.917Z,101128.34
2019-05-29T23:31:30.715Z,101126.82
2019-05-29T23:34:03.667Z,101125.66
2019-05-29T23:36:36.108Z,101127.25
2019-05-29T23:39:10.316Z,101126.45
2019-05-29T23:41:44.353Z,101126.09
2019-05-29T23:44:16.965Z,101131.99
2019-05-29T23:46:49.485Z,101133.30
2019-05-29T23:49:23.269Z,101127.11
2019-05-29T23:51:55.966Z,101124.70
2019-05-29T23:54:28.758Z,101135.30
2019-05-29T23:57:01.982Z,101123.30
2019-05-29T23:59:34.622Z,101125.88
